KSEG/SEG METAR and TAF weather

Enter ICAO airport designator
Station Type Date Time Source
KSEG METAR 2021/08/01 16:53 UTC NOAA

KSEG 011653Z AUTO 16005KT 10SM SCT050 BKN100 24/17 A2986 RMK AO2 SLP109 T02390172


Station Type Date Time Source
KSEG Decoded METAR 2021/08/01 16:53 UTC NOAA

SELINSGROVE PENN VALLEY AIRPORT , PA, United States (KSEG) 40-49N 076-52W 134M
Aug 01, 2021 - 12:53 PM EDT / 2021.08.01 1653 UTC
Wind: from the SSE (160 degrees) at 6 MPH (5 KT):0
Visibility: 10 mile(s):0
Sky conditions: mostly cloudy
Temperature: 75.0 F (23.9 C)
Dew Point: 63.0 F (17.2 C)
Relative Humidity: 66%
Pressure (altimeter): 29.86 in. Hg (1011 hPa)
ob: KSEG 011653Z AUTO 16005KT 10SM SCT050 BKN100 24/17 A2986 RMK AO2 SLP109 T02390172
cycle: 17

Station Type Date Time Source
KSEG TAF UTC NOAA

Error!

Example: see airport list